createdAt,value
2023-03-28T00:02:52.930Z,11.13
2023-03-28T00:07:58.986Z,13.35
2023-03-28T00:13:05.022Z,12.15
2023-03-28T00:23:19.691Z,11.25
2023-03-28T00:28:26.086Z,12.55
2023-03-28T00:33:36.214Z,9.63
2023-03-28T00:38:41.468Z,16.63
2023-03-28T00:43:49.531Z,13.37
2023-03-28T00:49:04.338Z,10.55
2023-03-28T00:54:15.160Z,17.17
2023-03-28T00:59:25.286Z,11.20
2023-03-28T01:04:51.042Z,15.63
2023-03-28T01:10:01.348Z,21.90
2023-03-28T01:15:08.396Z,15.57
2023-03-28T01:21:03.032Z,20.85
2023-03-28T01:26:18.729Z,15.65
2023-03-28T01:31:46.625Z,16.27
2023-03-28T01:37:16.412Z,11.35
2023-03-28T01:42:53.783Z,15.15
2023-03-28T01:48:24.711Z,9.68
2023-03-28T01:53:46.992Z,15.77
2023-03-28T01:59:05.414Z,21.85
2023-03-28T02:04:34.956Z,22.85
2023-03-28T02:09:43.594Z,15.73
2023-03-28T02:15:21.640Z,16.73
2023-03-28T02:20:52.260Z,19.85
2023-03-28T02:26:17.023Z,20.50
2023-03-28T02:31:48.318Z,26.35
2023-03-28T02:37:12.918Z,24.40
2023-03-28T02:42:34.397Z,21.80
2023-03-28T02:47:47.351Z,13.68
2023-03-28T02:53:16.550Z,22.38
2023-03-28T02:58:44.543Z,13.52
2023-03-28T03:03:52.665Z,29.08
2023-03-28T03:09:03.564Z,24.55
2023-03-28T03:14:09.669Z,21.30
2023-03-28T03:19:16.305Z,19.73
2023-03-28T03:24:23.746Z,25.88
2023-03-28T03:29:38.832Z,22.98
2023-03-28T03:34:52.552Z,20.70
2023-03-28T03:40:03.210Z,31.27
2023-03-28T03:45:14.035Z,32.65
2023-03-28T03:51:53.386Z,36.72
2023-03-28T03:56:45.614Z,27.92
2023-03-28T04:02:00.398Z,37.20
2023-03-28T04:07:31.514Z,36.45
2023-03-28T04:12:39.827Z,36.88
2023-03-28T04:18:06.244Z,22.63
2023-03-28T04:23:22.022Z,30.27
2023-03-28T04:28:33.213Z,21.35
2023-03-28T04:33:46.952Z,24.40
2023-03-28T04:39:00.661Z,32.47
2023-03-28T04:44:26.461Z,30.95
2023-03-28T04:49:41.814Z,32.23
2023-03-28T04:54:50.466Z,27.33
2023-03-28T05:00:02.606Z,24.90
2023-03-28T05:05:30.581Z,16.60
2023-03-28T05:10:40.453Z,22.90
2023-03-28T05:16:00.850Z,21.08
2023-03-28T05:21:27.546Z,20.92
2023-03-28T05:26:36.006Z,37.90
2023-03-28T05:31:45.718Z,38.42
2023-03-28T05:37:02.802Z,43.78
2023-03-28T05:42:18.073Z,28.67
2023-03-28T05:47:26.486Z,38.17
2023-03-28T05:52:33.328Z,30.52
2023-03-28T05:57:46.493Z,36.58
2023-03-28T06:02:56.638Z,34.08
2023-03-28T06:08:24.617Z,32.55
2023-03-28T06:13:36.171Z,30.38
2023-03-28T06:18:50.184Z,29.20
2023-03-28T06:24:00.212Z,24.85
2023-03-28T06:29:18.616Z,30.63
2023-03-28T06:34:29.275Z,25.10
2023-03-28T06:39:46.080Z,28.67
2023-03-28T06:44:53.094Z,27.08
2023-03-28T06:50:23.190Z,29.85
2023-03-28T06:55:33.375Z,34.38
2023-03-28T07:00:57.439Z,20.02
2023-03-28T07:06:16.654Z,30.10
2023-03-28T07:11:35.612Z,30.92
2023-03-28T07:16:46.854Z,34.20
2023-03-28T07:21:56.718Z,29.02
2023-03-28T07:27:24.875Z,28.25
2023-03-28T07:32:43.281Z,25.48
2023-03-28T07:38:03.015Z,26.67
2023-03-28T07:43:37.555Z,26.17
2023-03-28T07:49:09.724Z,24.83
2023-03-28T07:54:20.192Z,27.50
2023-03-28T07:59:33.277Z,20.70
2023-03-28T08:04:49.194Z,24.65
2023-03-28T08:10:05.188Z,22.70
2023-03-28T08:15:13.786Z,22.73
2023-03-28T08:20:21.859Z,22.73
2023-03-28T08:25:52.778Z,23.60
2023-03-28T08:31:04.307Z,19.70
2023-03-28T08:36:17.640Z,22.20
2023-03-28T08:41:47.285Z,22.57
2023-03-28T08:47:00.359Z,25.50
2023-03-28T08:52:08.834Z,24.38
2023-03-28T08:57:34.967Z,22.98
2023-03-28T09:02:41.885Z,23.75
2023-03-28T09:07:58.215Z,21.38
2023-03-28T09:18:36.002Z,20.02
2023-03-28T09:24:25.479Z,22.88
2023-03-28T09:29:48.429Z,26.55
2023-03-28T09:34:58.460Z,24.63
2023-03-28T09:40:27.158Z,26.52
2023-03-28T09:46:07.009Z,22.33
2023-03-28T09:51:40.217Z,24.83
2023-03-28T09:56:50.690Z,25.17
2023-03-28T10:02:35.895Z,30.73
2023-03-28T10:07:53.679Z,30.70
2023-03-28T10:13:14.663Z,27.17
2023-03-28T10:18:35.235Z,26.33
2023-03-28T10:24:17.640Z,29.17
2023-03-28T10:29:31.997Z,26.55
2023-03-28T10:34:39.537Z,27.33
2023-03-28T10:40:25.699Z,28.42
2023-03-28T10:45:54.965Z,33.42
2023-03-28T10:51:29.623Z,44.85
2023-03-28T10:57:26.045Z,49.60
2023-03-28T11:03:18.497Z,43.10
2023-03-28T11:14:58.961Z,43.08
2023-03-28T11:20:56.805Z,41.90
2023-03-28T11:33:37.714Z,52.38
2023-03-28T11:39:17.042Z,38.95
2023-03-28T11:44:38.530Z,40.95
2023-03-28T11:49:53.263Z,53.00
2023-03-28T11:56:02.067Z,46.95
2023-03-28T12:01:36.660Z,42.95
2023-03-28T12:07:09.273Z,34.15
2023-03-28T12:12:40.297Z,34.65
2023-03-28T12:18:02.204Z,38.28
2023-03-28T12:23:52.884Z,41.05
2023-03-28T12:30:00.856Z,36.15
2023-03-28T12:36:03.572Z,36.70
2023-03-28T12:47:28.356Z,33.72
2023-03-28T12:52:49.122Z,33.17
2023-03-28T12:58:25.583Z,35.65
2023-03-28T13:04:33.628Z,33.35
2023-03-28T13:10:09.597Z,30.23
2023-03-28T13:15:26.742Z,33.25
2023-03-28T13:20:53.927Z,30.58
2023-03-28T13:26:09.996Z,32.28
2023-03-28T13:31:35.187Z,33.95
2023-03-28T13:37:25.934Z,32.17
2023-03-28T13:43:11.476Z,29.77
2023-03-28T13:48:34.537Z,31.02
2023-03-28T13:53:48.690Z,26.55
2023-03-28T13:59:13.269Z,29.77
2023-03-28T14:04:31.965Z,25.35
2023-03-28T14:09:55.857Z,28.27
2023-03-28T14:21:04.139Z,25.00
2023-03-28T14:26:35.040Z,23.58
2023-03-28T14:32:09.897Z,27.65
2023-03-28T14:37:32.866Z,26.05
2023-03-28T14:42:56.036Z,28.48
2023-03-28T14:48:09.726Z,28.42
2023-03-28T14:53:26.626Z,23.80
2023-03-28T14:58:34.555Z,26.40
2023-03-28T15:03:54.333Z,26.05
2023-03-28T15:09:15.646Z,27.67
2023-03-28T15:14:44.333Z,25.38
2023-03-28T15:20:02.553Z,22.13
2023-03-28T15:25:20.161Z,24.08
2023-03-28T15:30:27.994Z,25.38
2023-03-28T15:35:42.216Z,24.55
2023-03-28T15:40:55.503Z,28.70
2023-03-28T15:46:19.005Z,26.75
2023-03-28T15:51:25.675Z,22.48
2023-03-28T15:56:39.100Z,27.65
2023-03-28T16:01:47.257Z,22.40
2023-03-28T16:07:16.752Z,21.33
2023-03-28T16:12:29.004Z,20.17
2023-03-28T16:18:12.479Z,24.10
2023-03-28T16:23:30.392Z,29.48
2023-03-28T16:28:38.079Z,15.73
2023-03-28T16:34:26.261Z,18.38
2023-03-28T16:39:33.185Z,20.95
2023-03-28T16:44:40.539Z,22.35
2023-03-28T16:49:48.733Z,15.40
2023-03-28T16:54:55.589Z,16.90
2023-03-28T17:00:02.429Z,15.88
2023-03-28T17:05:10.202Z,18.05
2023-03-28T17:10:16.394Z,26.73
2023-03-28T17:15:23.698Z,11.15
2023-03-28T17:20:35.078Z,11.48
2023-03-28T17:25:54.854Z,15.10
2023-03-28T17:31:01.836Z,13.83
2023-03-28T17:36:22.496Z,14.88
2023-03-28T17:41:29.305Z,14.98
2023-03-28T17:46:35.594Z,11.68
2023-03-28T17:51:46.570Z,12.65
2023-03-28T17:56:53.113Z,15.18
2023-03-28T18:02:00.206Z,14.95
2023-03-28T18:07:15.914Z,13.43
2023-03-28T18:12:23.911Z,10.20
2023-03-28T18:17:30.296Z,13.38
2023-03-28T18:22:38.122Z,12.70
2023-03-28T18:27:44.058Z,10.80
2023-03-28T18:32:50.165Z,10.50
2023-03-28T18:43:02.314Z,9.32
2023-03-28T18:48:10.335Z,8.30
2023-03-28T18:53:16.263Z,8.45
2023-03-28T18:58:24.957Z,9.80
2023-03-28T19:03:33.182Z,9.00
2023-03-28T19:08:39.254Z,8.65
2023-03-28T19:13:45.521Z,7.30
2023-03-28T19:18:52.401Z,8.70
2023-03-28T19:23:58.155Z,10.73
2023-03-28T19:29:03.448Z,12.07
2023-03-28T19:34:11.376Z,8.30
2023-03-28T19:39:17.207Z,11.13
2023-03-28T19:44:22.864Z,14.25
2023-03-28T19:49:28.447Z,10.05
2023-03-28T19:54:33.836Z,12.50
2023-03-28T19:59:39.164Z,12.07
2023-03-28T20:04:44.731Z,7.93
2023-03-28T20:09:50.804Z,6.77
2023-03-28T20:20:03.274Z,8.32
2023-03-28T20:30:16.357Z,10.90
2023-03-28T20:35:22.655Z,9.27
2023-03-28T20:40:31.890Z,7.63
2023-03-28T20:45:40.411Z,8.35
2023-03-28T20:50:49.033Z,9.60
2023-03-28T20:56:05.505Z,10.25
2023-03-28T21:01:13.973Z,11.05
2023-03-28T21:06:27.598Z,10.30
2023-03-28T21:11:36.610Z,7.82
2023-03-28T21:16:42.597Z,7.18
2023-03-28T21:21:48.709Z,6.53
2023-03-28T21:26:54.702Z,10.60
2023-03-28T21:32:00.599Z,9.27
2023-03-28T21:42:13.011Z,10.77
2023-03-28T21:52:23.631Z,10.15
2023-03-28T21:57:29.484Z,8.20
2023-03-28T22:02:35.237Z,5.95
2023-03-28T22:07:41.090Z,7.72
2023-03-28T22:12:47.931Z,8.43
2023-03-28T22:17:59.393Z,7.15
2023-03-28T22:23:05.900Z,6.20
2023-03-28T22:28:12.621Z,5.72
2023-03-28T22:33:20.828Z,6.75
2023-03-28T22:38:26.437Z,9.02
2023-03-28T22:43:34.716Z,9.87
2023-03-28T22:48:40.845Z,8.48
2023-03-28T22:53:47.082Z,8.30
2023-03-28T22:58:52.947Z,8.82
2023-03-28T23:03:58.498Z,9.80
2023-03-28T23:09:13.211Z,11.30
2023-03-28T23:14:23.788Z,9.75
2023-03-28T23:19:33.879Z,8.57
2023-03-28T23:24:39.412Z,8.63
2023-03-28T23:29:45.099Z,9.57
2023-03-28T23:34:50.707Z,8.30
2023-03-28T23:39:57.376Z,9.07
2023-03-28T23:45:03.207Z,8.63
2023-03-28T23:50:10.790Z,8.90
2023-03-28T23:55:16.751Z,8.05
